createdAt,value
2019-05-22T00:02:34.976Z,80.40
2019-05-22T00:05:14.397Z,80.40
2019-05-22T00:07:45.289Z,80.50
2019-05-22T00:10:20.340Z,80.30
2019-05-22T00:12:50.069Z,80.10
2019-05-22T00:15:21.139Z,80.10
2019-05-22T00:17:51.705Z,80.00
2019-05-22T00:20:25.179Z,79.90
2019-05-22T00:22:55.047Z,79.90
2019-05-22T00:25:33.116Z,79.70
2019-05-22T00:28:02.068Z,79.70
2019-05-22T00:30:35.722Z,79.50
2019-05-22T00:33:08.058Z,79.50
2019-05-22T00:35:38.536Z,79.30
2019-05-22T00:38:09.880Z,79.20
2019-05-22T00:40:45.280Z,79.10
2019-05-22T00:43:17.331Z,79.20
2019-05-22T00:45:50.163Z,78.90
2019-05-22T00:48:22.893Z,78.80
2019-05-22T00:51:10.097Z,78.80
2019-05-22T00:54:01.160Z,78.70
2019-05-22T00:56:36.352Z,78.60
2019-05-22T00:59:11.671Z,78.50
2019-05-22T01:01:46.338Z,78.30
2019-05-22T01:04:18.154Z,78.30
2019-05-22T01:06:49.170Z,78.40
2019-05-22T01:09:25.473Z,78.50
2019-05-22T01:11:56.265Z,78.30
2019-05-22T01:14:42.016Z,78.00
2019-05-22T01:16:59.150Z,77.90
2019-05-22T01:19:30.236Z,77.90
2019-05-22T01:22:06.458Z,78.10
2019-05-22T01:24:39.519Z,78.20
2019-05-22T01:27:09.616Z,78.20
2019-05-22T01:29:40.200Z,78.20
2019-05-22T01:32:21.038Z,78.00
2019-05-22T01:34:50.964Z,77.80
2019-05-22T01:37:20.404Z,77.60
2019-05-22T01:40:04.299Z,77.60
2019-05-22T01:42:39.366Z,77.40
2019-05-22T01:45:12.018Z,77.30
2019-05-22T01:47:54.166Z,77.10
2019-05-22T01:50:41.066Z,77.10
2019-05-22T01:53:12.142Z,77.00
2019-05-22T01:55:41.580Z,77.00
2019-05-22T01:58:12.672Z,76.50
2019-05-22T02:00:44.174Z,76.30
2019-05-22T02:03:14.687Z,76.10
2019-05-22T02:05:44.451Z,76.20
2019-05-22T02:08:14.274Z,76.20
2019-05-22T02:10:46.130Z,76.20
2019-05-22T02:13:20.231Z,76.30
2019-05-22T02:15:49.686Z,76.30
2019-05-22T02:18:19.420Z,76.50
2019-05-22T02:20:50.049Z,76.50
2019-05-22T02:23:19.646Z,76.50
2019-05-22T02:25:50.311Z,76.50
2019-05-22T02:28:21.500Z,76.50
2019-05-22T02:30:52.381Z,76.60
2019-05-22T02:33:24.569Z,76.50
2019-05-22T02:35:55.472Z,76.40
2019-05-22T02:38:29.397Z,77.20
2019-05-22T02:40:59.314Z,76.40
2019-05-22T02:43:30.343Z,76.50
2019-05-22T02:46:00.822Z,76.50
2019-05-22T02:48:33.259Z,76.50
2019-05-22T02:51:02.898Z,76.50
2019-05-22T02:53:32.623Z,76.40
2019-05-22T02:56:02.267Z,76.30
2019-05-22T02:58:33.543Z,76.20
2019-05-22T03:01:05.567Z,76.10
2019-05-22T03:03:38.431Z,75.90
2019-05-22T03:06:12.335Z,75.90
2019-05-22T03:09:07.282Z,75.90
2019-05-22T03:11:39.599Z,75.70
2019-05-22T03:14:11.479Z,75.50
2019-05-22T03:17:03.751Z,75.50
2019-05-22T03:19:41.270Z,75.50
2019-05-22T03:22:24.329Z,75.40
2019-05-22T03:24:55.444Z,75.40
2019-05-22T03:27:45.775Z,75.20
2019-05-22T03:30:25.355Z,75.30
2019-05-22T03:32:56.240Z,75.30
2019-05-22T03:35:27.893Z,74.90
2019-05-22T03:37:59.184Z,74.90
2019-05-22T03:40:29.911Z,75.10
2019-05-22T03:43:05.918Z,74.40
2019-05-22T03:45:37.251Z,74.30
2019-05-22T03:48:07.345Z,74.20
2019-05-22T03:50:37.554Z,74.10
2019-05-22T03:53:18.696Z,74.20
2019-05-22T03:55:49.656Z,73.90
2019-05-22T03:58:19.674Z,74.00
2019-05-22T04:00:51.779Z,73.90
2019-05-22T04:03:23.389Z,73.90
2019-05-22T04:05:53.507Z,74.00
2019-05-22T04:08:25.499Z,74.20
2019-05-22T04:11:02.015Z,74.20
2019-05-22T04:13:32.117Z,74.20
2019-05-22T04:16:03.350Z,74.20
2019-05-22T04:18:35.174Z,74.40
2019-05-22T04:21:04.976Z,74.10
2019-05-22T04:23:34.392Z,74.10
2019-05-22T04:26:05.590Z,74.20
2019-05-22T04:28:37.311Z,74.20
2019-05-22T04:31:07.301Z,74.20
2019-05-22T04:36:10.120Z,74.30
2019-05-22T04:38:39.960Z,74.20
2019-05-22T04:41:10.507Z,74.00
2019-05-22T04:43:40.006Z,74.00
2019-05-22T04:46:09.865Z,74.10
2019-05-22T04:48:39.136Z,74.00
2019-05-22T04:51:25.213Z,74.00
2019-05-22T04:53:56.155Z,73.90
2019-05-22T04:56:26.588Z,73.90
2019-05-22T04:58:56.897Z,74.00
2019-05-22T05:01:27.661Z,74.10
2019-05-22T05:03:57.425Z,73.90
2019-05-22T05:06:29.043Z,73.80
2019-05-22T05:08:58.660Z,73.70
2019-05-22T05:11:28.313Z,73.70
2019-05-22T05:13:57.674Z,73.80
2019-05-22T05:16:27.083Z,73.70
2019-05-22T05:18:57.193Z,73.70
2019-05-22T05:21:26.839Z,73.60
2019-05-22T05:23:56.738Z,73.40
2019-05-22T05:26:26.831Z,73.00
2019-05-22T05:28:56.591Z,72.80
2019-05-22T05:31:26.376Z,72.80
2019-05-22T05:34:23.181Z,73.00
2019-05-22T05:36:52.948Z,73.20
2019-05-22T05:40:03.691Z,73.20
2019-05-22T05:42:33.124Z,73.10
2019-05-22T05:45:02.685Z,73.20
2019-05-22T05:47:35.293Z,73.00
2019-05-22T05:50:06.684Z,72.60
2019-05-22T05:52:37.285Z,72.30
2019-05-22T05:55:08.176Z,72.50
2019-05-22T05:58:23.635Z,72.30
2019-05-22T06:00:57.874Z,72.10
2019-05-22T06:03:37.827Z,71.80
2019-05-22T06:07:00.824Z,72.20
2019-05-22T06:09:31.858Z,71.80
2019-05-22T06:12:05.761Z,71.40
2019-05-22T06:14:36.700Z,71.50
2019-05-22T06:17:43.391Z,71.80
2019-05-22T06:20:16.979Z,71.60
2019-05-22T06:23:27.542Z,71.30
2019-05-22T06:25:58.314Z,71.50
2019-05-22T06:28:30.640Z,69.90
2019-05-22T06:31:01.269Z,69.20
2019-05-22T06:33:34.059Z,68.80
2019-05-22T06:36:07.379Z,68.00
2019-05-22T06:39:10.049Z,68.60
2019-05-22T06:41:40.984Z,69.00
2019-05-22T06:44:39.198Z,69.40
2019-05-22T06:47:12.768Z,69.40
2019-05-22T06:49:44.324Z,70.10
2019-05-22T06:52:14.483Z,69.70
2019-05-22T06:54:44.446Z,68.70
2019-05-22T06:57:27.371Z,67.30
2019-05-22T07:00:12.351Z,67.10
2019-05-22T07:02:31.514Z,67.10
2019-05-22T07:05:01.008Z,67.10
2019-05-22T07:07:30.383Z,67.00
2019-05-22T07:10:00.195Z,66.40
2019-05-22T07:12:35.268Z,67.10
2019-05-22T07:15:40.922Z,67.10
2019-05-22T07:18:13.023Z,66.60
2019-05-22T07:20:44.603Z,67.40
2019-05-22T07:23:16.849Z,67.20
2019-05-22T07:25:47.241Z,67.50
2019-05-22T07:28:19.333Z,65.50
2019-05-22T07:30:50.691Z,65.30
2019-05-22T07:33:20.909Z,65.30
2019-05-22T07:36:08.601Z,65.70
2019-05-22T07:38:22.333Z,65.00
2019-05-22T07:40:53.017Z,64.80
2019-05-22T07:43:26.016Z,64.80
2019-05-22T07:45:57.077Z,65.00
2019-05-22T07:48:29.611Z,65.10
2019-05-22T07:50:59.266Z,65.20
2019-05-22T07:53:29.597Z,64.80
2019-05-22T07:56:00.716Z,65.10
2019-05-22T07:58:31.291Z,66.20
2019-05-22T08:01:02.249Z,65.60
2019-05-22T08:03:32.558Z,64.20
2019-05-22T08:06:02.799Z,63.70
2019-05-22T08:08:35.435Z,63.80
2019-05-22T08:11:06.459Z,63.80
2019-05-22T08:13:37.754Z,64.10
2019-05-22T08:16:08.438Z,63.80
2019-05-22T08:18:39.395Z,64.40
2019-05-22T08:21:09.888Z,64.20
2019-05-22T08:23:39.343Z,64.30
2019-05-22T08:26:10.685Z,64.50
2019-05-22T08:28:40.972Z,65.20
2019-05-22T08:31:13.244Z,64.40
2019-05-22T08:33:43.102Z,64.40
2019-05-22T08:36:12.721Z,64.60
2019-05-22T08:38:44.548Z,65.00
2019-05-22T08:41:16.022Z,63.40
2019-05-22T08:44:14.377Z,62.20
2019-05-22T08:46:17.871Z,62.20
2019-05-22T08:48:49.295Z,62.10
2019-05-22T08:51:19.389Z,62.80
2019-05-22T08:53:48.990Z,62.90
2019-05-22T08:56:19.557Z,63.20
2019-05-22T08:58:48.859Z,62.00
2019-05-22T09:01:18.166Z,61.90
2019-05-22T09:03:47.993Z,62.70
2019-05-22T09:06:17.492Z,62.10
2019-05-22T09:08:47.315Z,61.40
2019-05-22T09:11:16.779Z,61.80
2019-05-22T09:13:46.140Z,61.80
2019-05-22T09:16:16.830Z,61.10
2019-05-22T09:18:46.222Z,60.60
2019-05-22T09:21:16.483Z,60.50
2019-05-22T09:23:47.282Z,60.80
2019-05-22T09:26:17.251Z,60.30
2019-05-22T09:28:46.534Z,60.30
2019-05-22T09:31:15.867Z,59.70
2019-05-22T09:33:45.146Z,60.00
2019-05-22T09:36:14.826Z,60.70
2019-05-22T09:38:45.821Z,60.80
2019-05-22T09:41:15.427Z,60.10
2019-05-22T09:43:44.732Z,58.90
2019-05-22T09:46:15.137Z,58.50
2019-05-22T09:48:44.431Z,58.70
2019-05-22T09:51:13.942Z,58.60
2019-05-22T09:53:43.593Z,58.60
2019-05-22T09:56:13.022Z,58.50
2019-05-22T09:58:42.372Z,57.70
2019-05-22T10:01:15.028Z,57.70
2019-05-22T10:03:44.401Z,57.50
2019-05-22T10:06:13.688Z,57.20
2019-05-22T10:08:43.426Z,56.90
2019-05-22T10:11:12.785Z,56.70
2019-05-22T10:13:42.117Z,56.10
2019-05-22T10:16:11.647Z,55.90
2019-05-22T10:18:41.453Z,56.20
2019-05-22T10:21:11.279Z,56.60
2019-05-22T10:23:40.869Z,55.90
2019-05-22T10:26:11.045Z,55.60
2019-05-22T10:28:42.200Z,55.50
2019-05-22T10:31:13.675Z,55.00
2019-05-22T10:33:42.981Z,54.70
2019-05-22T10:36:12.305Z,54.70
2019-05-22T10:38:41.555Z,54.60
2019-05-22T10:41:11.765Z,54.30
2019-05-22T10:43:41.569Z,54.10
2019-05-22T10:46:11.788Z,53.90
2019-05-22T10:48:40.994Z,53.50
2019-05-22T10:51:10.433Z,53.20
2019-05-22T10:53:39.771Z,53.30
2019-05-22T10:56:09.263Z,53.40
2019-05-22T10:58:38.631Z,53.30
2019-05-22T11:01:09.156Z,53.50
2019-05-22T11:03:38.656Z,53.60
2019-05-22T11:06:08.605Z,53.40
2019-05-22T11:08:39.201Z,53.30
2019-05-22T11:11:09.102Z,53.50
2019-05-22T11:13:40.540Z,53.20
2019-05-22T11:16:10.348Z,53.30
2019-05-22T11:18:40.830Z,53.10
2019-05-22T11:21:10.386Z,52.80
2019-05-22T11:23:51.306Z,52.90
2019-05-22T11:26:11.648Z,53.90
2019-05-22T11:28:41.312Z,53.50
2019-05-22T11:31:13.818Z,53.80
2019-05-22T11:33:43.490Z,54.00
2019-05-22T11:36:13.110Z,53.70
2019-05-22T11:38:42.715Z,53.80
2019-05-22T11:41:12.599Z,53.20
2019-05-22T11:43:42.682Z,53.10
2019-05-22T11:46:12.175Z,53.10
2019-05-22T11:48:41.581Z,53.00
2019-05-22T11:51:11.924Z,52.70
2019-05-22T11:53:41.735Z,52.60
2019-05-22T11:56:11.126Z,53.10
2019-05-22T11:58:40.800Z,53.30
2019-05-22T12:01:10.974Z,53.20
2019-05-22T12:03:41.041Z,53.40
2019-05-22T12:06:10.753Z,53.20
2019-05-22T12:08:40.680Z,52.90
2019-05-22T12:11:14.176Z,52.50
2019-05-22T12:13:43.485Z,52.80
2019-05-22T12:16:13.400Z,52.50
2019-05-22T12:18:43.213Z,52.60
2019-05-22T12:21:13.023Z,51.40
2019-05-22T12:23:42.627Z,50.10
2019-05-22T12:26:12.742Z,49.70
2019-05-22T12:28:42.350Z,48.50
2019-05-22T12:31:12.182Z,48.60
2019-05-22T12:33:41.781Z,48.00
2019-05-22T12:36:13.894Z,47.90
2019-05-22T12:38:44.333Z,47.80
2019-05-22T12:41:14.771Z,47.50
2019-05-22T12:43:45.082Z,46.20
2019-05-22T12:46:14.820Z,46.20
2019-05-22T12:48:45.331Z,46.80
2019-05-22T12:51:16.219Z,46.50
2019-05-22T12:53:46.499Z,47.30
2019-05-22T12:56:16.048Z,46.00
2019-05-22T12:58:46.162Z,45.40
2019-05-22T13:01:16.304Z,44.50
2019-05-22T13:03:47.782Z,45.00
2019-05-22T13:06:19.858Z,44.60
2019-05-22T13:08:49.283Z,45.00
2019-05-22T13:11:19.413Z,45.40
2019-05-22T13:13:48.902Z,43.80
2019-05-22T13:16:18.480Z,42.50
2019-05-22T13:18:50.659Z,41.20
2019-05-22T13:21:22.445Z,42.00
2019-05-22T13:23:53.337Z,41.80
2019-05-22T13:26:24.241Z,41.50
2019-05-22T13:28:54.781Z,40.60
2019-05-22T13:31:24.957Z,41.00
2019-05-22T13:33:55.422Z,41.50
2019-05-22T13:36:25.219Z,41.60
2019-05-22T13:38:54.956Z,41.20
2019-05-22T13:41:24.481Z,41.20
2019-05-22T13:43:54.952Z,41.50
2019-05-22T13:46:24.404Z,42.00
2019-05-22T13:48:53.664Z,42.30
2019-05-22T13:51:23.746Z,42.50
2019-05-22T13:53:53.654Z,42.90
2019-05-22T13:56:25.610Z,43.40
2019-05-22T13:58:56.168Z,43.80
2019-05-22T14:01:26.240Z,44.20
2019-05-22T14:03:55.968Z,44.10
2019-05-22T14:06:25.943Z,44.00
2019-05-22T14:08:55.532Z,44.00
2019-05-22T14:11:25.047Z,43.00
2019-05-22T14:13:55.003Z,42.90
2019-05-22T14:16:24.337Z,42.10
2019-05-22T14:18:53.616Z,42.10
2019-05-22T14:21:22.911Z,41.80
2019-05-22T14:23:52.142Z,41.10
2019-05-22T14:26:21.411Z,40.60
2019-05-22T14:28:53.838Z,39.20
2019-05-22T14:31:23.232Z,39.50
2019-05-22T14:33:52.992Z,39.00
2019-05-22T14:36:22.993Z,39.00
2019-05-22T14:38:53.632Z,39.00
2019-05-22T14:41:23.025Z,38.30
2019-05-22T14:43:52.345Z,38.10
2019-05-22T14:46:21.927Z,37.90
2019-05-22T14:48:51.315Z,37.60
2019-05-22T14:51:22.648Z,38.10
2019-05-22T14:53:54.453Z,37.60
2019-05-22T14:56:24.932Z,37.40
2019-05-22T14:58:55.855Z,38.00
2019-05-22T15:01:26.569Z,37.80
2019-05-22T15:03:56.206Z,37.80
2019-05-22T15:06:26.036Z,37.30
2019-05-22T15:08:55.322Z,37.10
2019-05-22T15:11:25.316Z,36.40
2019-05-22T15:13:54.632Z,35.90
2019-05-22T15:16:24.047Z,35.80
2019-05-22T15:18:54.147Z,33.80
2019-05-22T15:21:25.911Z,32.50
2019-05-22T15:23:56.237Z,32.10
2019-05-22T15:26:26.944Z,32.30
2019-05-22T15:28:56.535Z,32.50
2019-05-22T15:31:25.932Z,32.40
2019-05-22T15:33:55.867Z,32.60
2019-05-22T15:36:25.519Z,32.20
2019-05-22T15:38:55.128Z,31.70
2019-05-22T15:41:25.806Z,31.60
2019-05-22T15:43:55.723Z,31.50
2019-05-22T15:46:26.030Z,31.20
2019-05-22T15:48:56.120Z,31.40
2019-05-22T15:51:31.978Z,31.80
2019-05-22T15:54:05.318Z,32.20
2019-05-22T15:56:36.886Z,32.00
2019-05-22T15:59:10.092Z,29.70
2019-05-22T16:01:39.754Z,29.20
2019-05-22T16:04:12.932Z,28.90
2019-05-22T16:06:42.648Z,28.40
2019-05-22T16:09:15.259Z,28.60
2019-05-22T16:11:47.020Z,28.60
2019-05-22T16:14:17.335Z,28.20
2019-05-22T16:16:50.339Z,27.80
2019-05-22T16:19:21.947Z,27.50
2019-05-22T16:21:54.072Z,27.40
2019-05-22T16:24:23.648Z,27.90
2019-05-22T16:26:53.591Z,27.60
2019-05-22T16:29:25.389Z,27.20
2019-05-22T16:31:56.980Z,26.90
2019-05-22T16:34:28.494Z,25.80
2019-05-22T16:36:58.809Z,25.60
2019-05-22T16:39:31.639Z,25.30
2019-05-22T16:42:02.826Z,25.80
2019-05-22T16:44:33.444Z,25.80
2019-05-22T16:47:04.880Z,25.80
2019-05-22T16:49:35.596Z,25.90
2019-05-22T16:52:09.138Z,25.80
2019-05-22T16:54:41.265Z,26.60
2019-05-22T16:57:11.637Z,27.50
2019-05-22T16:59:41.763Z,31.10
2019-05-22T17:02:14.087Z,35.40
2019-05-22T17:04:43.711Z,36.90
2019-05-22T17:07:14.437Z,37.60
2019-05-22T17:09:44.633Z,38.20
2019-05-22T17:12:16.976Z,38.80
2019-05-22T17:14:49.327Z,39.00
2019-05-22T17:17:20.087Z,39.00
2019-05-22T17:19:49.819Z,38.90
2019-05-22T17:22:20.155Z,38.90
2019-05-22T17:24:49.552Z,38.80
2019-05-22T17:27:19.699Z,38.80
2019-05-22T17:29:51.548Z,38.80
2019-05-22T17:32:23.518Z,38.90
2019-05-22T17:34:52.916Z,38.50
2019-05-22T17:37:22.336Z,38.20
2019-05-22T17:39:53.383Z,38.20
2019-05-22T17:42:25.030Z,37.70
2019-05-22T17:44:55.470Z,37.50
2019-05-22T17:47:27.020Z,37.70
2019-05-22T17:49:56.888Z,37.30
2019-05-22T17:52:27.677Z,37.10
2019-05-22T17:54:57.640Z,36.70
2019-05-22T17:57:27.445Z,35.90
2019-05-22T17:59:57.088Z,35.60
2019-05-22T18:02:31.653Z,35.60
2019-05-22T18:05:00.971Z,35.70
2019-05-22T18:07:31.061Z,36.30
2019-05-22T18:10:00.715Z,36.70
2019-05-22T18:12:30.734Z,37.00
2019-05-22T18:15:01.131Z,37.40
2019-05-22T18:17:30.463Z,37.90
2019-05-22T18:20:00.733Z,38.30
2019-05-22T18:22:30.432Z,38.80
2019-05-22T18:25:00.012Z,39.20
2019-05-22T18:27:30.786Z,39.50
2019-05-22T18:30:00.157Z,39.90
2019-05-22T18:32:31.559Z,40.00
2019-05-22T18:35:00.667Z,39.90
2019-05-22T18:37:30.094Z,40.00
2019-05-22T18:39:59.471Z,40.00
2019-05-22T18:42:29.007Z,40.20
2019-05-22T18:44:58.275Z,40.40
2019-05-22T18:47:27.809Z,40.60
2019-05-22T18:49:57.433Z,40.70
2019-05-22T18:52:39.810Z,40.70
2019-05-22T18:54:57.819Z,40.80
2019-05-22T18:57:27.209Z,40.90
2019-05-22T19:00:02.895Z,40.90
2019-05-22T19:02:27.556Z,40.90
2019-05-22T19:04:56.804Z,40.90
2019-05-22T19:07:26.091Z,41.00
2019-05-22T19:09:58.493Z,41.10
2019-05-22T19:12:27.869Z,41.30
2019-05-22T19:14:57.263Z,41.40
2019-05-22T19:17:27.020Z,41.50
2019-05-22T19:19:57.176Z,41.70
2019-05-22T19:22:29.497Z,41.70
2019-05-22T19:24:58.924Z,41.70
2019-05-22T19:27:28.442Z,41.80
2019-05-22T19:29:57.676Z,42.10
2019-05-22T19:32:27.327Z,42.30
2019-05-22T19:34:56.703Z,42.40
2019-05-22T19:37:26.028Z,42.50
2019-05-22T19:39:55.426Z,42.70
2019-05-22T19:42:24.794Z,42.80
2019-05-22T19:44:54.293Z,42.90
2019-05-22T19:47:24.897Z,42.90
2019-05-22T19:49:57.654Z,43.00
2019-05-22T19:52:41.136Z,43.40
2019-05-22T19:54:58.773Z,43.70
2019-05-22T19:57:28.621Z,44.30
2019-05-22T19:59:58.506Z,44.60
2019-05-22T20:02:28.800Z,44.60
2019-05-22T20:04:58.591Z,44.70
2019-05-22T20:07:29.226Z,44.70
2019-05-22T20:09:58.634Z,44.60
2019-05-22T20:12:28.411Z,44.90
2019-05-22T20:14:58.338Z,45.20
2019-05-22T20:17:28.141Z,45.60
2019-05-22T20:19:57.617Z,45.70
2019-05-22T20:22:27.325Z,45.50
2019-05-22T20:24:57.113Z,45.70
2019-05-22T20:27:27.023Z,45.80
2019-05-22T20:29:56.763Z,46.20
2019-05-22T20:32:26.159Z,46.60
2019-05-22T20:34:55.720Z,47.00
2019-05-22T20:37:25.507Z,47.20
2019-05-22T20:39:54.848Z,47.30
2019-05-22T20:42:24.561Z,47.50
2019-05-22T20:44:53.823Z,47.30
2019-05-22T20:47:25.324Z,47.30
2019-05-22T20:49:55.239Z,47.70
2019-05-22T20:52:27.426Z,48.10
2019-05-22T20:54:57.652Z,48.40
2019-05-22T20:57:28.428Z,48.30
2019-05-22T20:59:57.995Z,48.30
2019-05-22T21:02:30.462Z,48.50
2019-05-22T21:05:01.562Z,49.10
2019-05-22T21:07:34.812Z,49.70
2019-05-22T21:10:06.111Z,49.90
2019-05-22T21:12:36.373Z,50.00
2019-05-22T21:15:07.533Z,50.30
2019-05-22T21:17:38.360Z,50.80
2019-05-22T21:20:09.332Z,51.20
2019-05-22T21:22:40.061Z,51.50
2019-05-22T21:25:10.001Z,51.70
2019-05-22T21:27:39.405Z,51.80
2019-05-22T21:30:10.086Z,52.00
2019-05-22T21:32:40.223Z,52.20
2019-05-22T21:35:10.194Z,52.50
2019-05-22T21:37:41.180Z,53.40
2019-05-22T21:40:11.156Z,53.60
2019-05-22T21:42:43.228Z,53.70
2019-05-22T21:45:13.116Z,53.60
2019-05-22T21:47:44.262Z,53.80
2019-05-22T21:50:14.922Z,54.10
2019-05-22T21:52:44.203Z,54.40
2019-05-22T21:55:14.543Z,54.50
2019-05-22T21:57:44.525Z,54.90
2019-05-22T22:00:19.736Z,55.70
2019-05-22T22:02:50.630Z,55.10
2019-05-22T22:05:20.963Z,55.20
2019-05-22T22:07:50.448Z,55.50
2019-05-22T22:10:20.253Z,55.70
2019-05-22T22:12:51.101Z,55.60
2019-05-22T22:15:22.282Z,55.70
2019-05-22T22:17:51.911Z,55.50
2019-05-22T22:20:22.293Z,55.20
2019-05-22T22:22:51.987Z,55.30
2019-05-22T22:25:24.036Z,55.60
2019-05-22T22:27:53.406Z,55.70
2019-05-22T22:30:36.259Z,55.70
2019-05-22T22:33:10.075Z,55.70
2019-05-22T22:35:40.249Z,55.90
2019-05-22T22:38:10.297Z,56.80
2019-05-22T22:40:42.238Z,56.20
2019-05-22T22:43:14.244Z,56.20
2019-05-22T22:45:56.992Z,56.50
2019-05-22T22:48:32.010Z,56.70
2019-05-22T22:51:00.387Z,56.80
2019-05-22T22:53:31.266Z,57.00
2019-05-22T22:56:01.426Z,57.30
2019-05-22T22:58:31.196Z,57.90
2019-05-22T23:01:03.165Z,58.10
2019-05-22T23:03:32.871Z,58.20
2019-05-22T23:06:03.772Z,58.00
2019-05-22T23:08:34.804Z,58.20
2019-05-22T23:11:07.092Z,58.50
2019-05-22T23:13:37.206Z,58.40
2019-05-22T23:16:07.913Z,58.40
2019-05-22T23:19:15.710Z,58.40
2019-05-22T23:21:45.555Z,58.40
2019-05-22T23:24:15.907Z,58.40
2019-05-22T23:26:45.606Z,58.40
2019-05-22T23:29:15.718Z,58.50
2019-05-22T23:31:46.609Z,58.70
2019-05-22T23:34:16.807Z,58.70
2019-05-22T23:36:46.381Z,58.60
2019-05-22T23:39:17.839Z,58.50
2019-05-22T23:41:48.477Z,58.60
2019-05-22T23:44:21.457Z,58.50
2019-05-22T23:46:51.673Z,58.50
2019-05-22T23:49:21.268Z,58.50
2019-05-22T23:51:51.375Z,58.70
2019-05-22T23:54:20.582Z,58.90
2019-05-22T23:56:52.131Z,59.10
2019-05-22T23:59:22.035Z,59.00
